Time;durP1;ratioP1;P1;durP2;ratioP2;P2;SDS_P1;SDS_P2;PMS_P1;PMS_P2;Temp;Humidity;BMP_temperature;BMP_pressure;BME280_temperature;BME280_humidity;BME280_pressure;Samples;Min_cycle;Max_cycle;Signal;HPM_P1;HPM_P2
2023/05/27 00:02:04;;;;;;;12.77;5.60;;;;;;;12.29;86.08;99286.94;4978612;28;20238;-62
2023/05/27 00:04:56;;;;;;;10.20;5.60;;;;;;;12.22;86.08;99277.03;4974139;28;20755;-62
2023/05/27 00:07:23;;;;;;;12.40;4.80;;;;;;;12.17;86.69;99276.66;4976485;28;20637;-62
2023/05/27 00:09:50;;;;;;;16.23;6.13;;;;;;;12.09;85.56;99277.41;4980157;28;20257;-62
2023/05/27 00:12:20;;;;;;;8.30;5.13;;;;;;;12.08;86.35;99274.91;4967840;28;20250;-62
2023/05/27 00:14:47;;;;;;;12.37;5.40;;;;;;;12.09;86.75;99280.00;4977111;28;20686;-62
2023/05/27 00:17:14;;;;;;;11.63;5.53;;;;;;;12.06;86.11;99282.91;4975027;28;20726;-62
2023/05/27 00:19:40;;;;;;;14.37;5.70;;;;;;;11.97;86.42;99270.66;4978312;28;20238;-62
2023/05/27 00:22:07;;;;;;;12.30;5.40;;;;;;;11.97;86.31;99275.91;4978859;28;20243;-62
2023/05/27 00:24:41;;;;;;;12.03;5.67;;;;;;;12.01;85.92;99284.28;4974188;28;20246;-62
2023/05/27 00:27:08;;;;;;;14.57;5.77;;;;;;;11.93;84.81;99270.09;4969471;28;20230;-62
2023/05/27 00:29:39;;;;;;;11.63;4.80;;;;;;;12.10;83.83;99276.44;4967274;28;20312;-62
2023/05/27 00:32:06;;;;;;;12.53;5.73;;;;;;;12.17;83.30;99275.84;4979034;28;20238;-62
2023/05/27 00:34:38;;;;;;;13.50;5.17;;;;;;;12.15;84.25;99267.31;4980150;28;20244;-62
2023/05/27 00:37:06;;;;;;;11.97;5.70;;;;;;;12.18;83.23;99267.03;4973406;28;20234;-62
2023/05/27 00:39:38;;;;;;;11.93;5.00;;;;;;;12.10;82.85;99267.72;4970327;28;20600;-62
2023/05/27 00:42:07;;;;;;;13.23;5.27;;;;;;;12.11;80.36;99274.63;4974218;28;20223;-62
2023/05/27 00:44:38;;;;;;;15.13;5.00;;;;;;;12.17;82.73;99265.38;4973823;28;20245;-62
2023/05/27 00:47:08;;;;;;;11.83;4.73;;;;;;;12.13;82.27;99264.03;4981521;28;20231;-62
2023/05/27 00:49:38;;;;;;;14.60;5.00;;;;;;;12.34;78.24;99266.38;4973080;28;20230;-62
2023/05/27 00:52:06;;;;;;;10.90;4.83;;;;;;;12.25;79.14;99255.81;4979780;28;20229;-62
2023/05/27 00:54:38;;;;;;;11.60;4.83;;;;;;;12.28;80.07;99264.34;4973742;28;20258;-62
2023/05/27 00:57:06;;;;;;;9.17;4.87;;;;;;;12.40;79.70;99248.28;4979891;28;20307;-63
2023/05/27 00:59:38;;;;;;;13.77;4.87;;;;;;;12.42;77.76;99263.84;4975157;28;20698;-62
2023/05/27 01:02:06;;;;;;;12.47;4.80;;;;;;;12.39;76.78;99259.72;4978374;28;20250;-62
2023/05/27 01:04:38;;;;;;;12.77;5.10;;;;;;;12.44;75.39;99256.69;4973828;28;20234;-62
2023/05/27 01:07:09;;;;;;;10.63;4.80;;;;;;;12.50;76.61;99252.63;4968414;28;20231;-62
2023/05/27 01:09:45;;;;;;;10.97;4.60;;;;;;;12.40;76.98;99253.50;4976647;28;20760;-62
2023/05/27 01:12:32;;;;;;;11.67;4.87;;;;;;;12.38;77.13;99255.47;4979034;28;20238;-62
2023/05/27 01:15:01;;;;;;;13.27;4.80;;;;;;;12.47;77.00;99261.63;4979482;28;20230;-62
2023/05/27 01:17:32;;;;;;;12.53;4.67;;;;;;;12.42;76.96;99253.38;4946849;28;20617;-62
2023/05/27 01:20:00;;;;;;;16.83;4.87;;;;;;;12.36;77.75;99254.78;4982477;28;20721;-62
2023/05/27 01:22:30;;;;;;;10.90;4.37;;;;;;;12.35;76.59;99249.72;4979830;28;20241;-62
2023/05/27 01:24:57;;;;;;;11.10;5.00;;;;;;;12.33;77.35;99246.41;4976893;28;20240;-62
2023/05/27 01:27:24;;;;;;;14.60;4.67;;;;;;;12.44;78.24;99235.72;4972427;28;20234;-62
2023/05/27 01:29:51;;;;;;;14.40;4.43;;;;;;;12.34;77.51;99235.78;4970983;28;20326;-62
2023/05/27 01:32:23;;;;;;;8.37;3.93;;;;;;;12.27;77.60;99229.47;4979827;28;20326;-62
2023/05/27 01:34:58;;;;;;;12.07;4.60;;;;;;;12.25;79.79;99234.03;4983228;28;20238;-62
2023/05/27 01:37:32;;;;;;;8.20;4.97;;;;;;;12.20;78.46;99231.88;4978813;28;20242;-62
2023/05/27 01:39:59;;;;;;;9.53;4.67;;;;;;;12.13;78.05;99225.56;4975358;28;20325;-62
2023/05/27 01:42:29;;;;;;;12.90;5.00;;;;;;;12.16;80.87;99224.47;4978734;28;20231;-62
2023/05/27 01:44:56;;;;;;;10.17;4.30;;;;;;;12.08;80.00;99222.56;4976814;28;20234;-62
2023/05/27 01:47:23;;;;;;;10.47;4.50;;;;;;;12.13;80.17;99214.31;4979968;28;20304;-62
2023/05/27 01:49:49;;;;;;;12.40;4.60;;;;;;;12.09;81.08;99209.34;4984461;28;20230;-62
2023/05/27 01:52:17;;;;;;;13.77;5.00;;;;;;;12.11;78.51;99217.03;4972277;28;20693;-62
2023/05/27 01:54:46;;;;;;;13.30;4.90;;;;;;;12.05;80.03;99222.84;4969297;28;20773;-62
2023/05/27 01:57:13;;;;;;;12.60;5.33;;;;;;;12.01;81.24;99214.50;4974480;28;20232;-62
2023/05/27 01:59:40;;;;;;;10.13;4.70;;;;;;;12.03;82.13;99215.16;4985516;28;20246;-62
2023/05/27 02:02:08;;;;;;;11.77;5.00;;;;;;;12.06;83.14;99214.03;4975734;28;20231;-63
2023/05/27 02:04:38;;;;;;;13.43;4.40;;;;;;;11.95;82.03;99212.44;4976514;28;20229;-62
2023/05/27 02:07:05;;;;;;;12.23;5.23;;;;;;;11.89;81.17;99211.19;4985123;28;20814;-62
2023/05/27 02:09:38;;;;;;;12.57;5.63;;;;;;;11.84;81.54;99197.72;4975569;28;20739;-62
2023/05/27 02:12:07;;;;;;;6.37;4.13;;;;;;;11.80;81.21;99209.44;4980039;28;20241;-62
2023/05/27 02:14:40;;;;;;;11.50;4.27;;;;;;;11.90;83.45;99202.38;4976819;28;20236;-62
2023/05/27 02:17:07;;;;;;;8.40;4.43;;;;;;;11.79;82.76;99197.34;4985929;28;20291;-62
2023/05/27 02:19:38;;;;;;;8.87;4.40;;;;;;;11.77;82.39;99194.88;4977116;28;20346;-62
2023/05/27 02:22:10;;;;;;;12.87;4.70;;;;;;;11.82;83.49;99192.66;4977514;28;20258;-63
2023/05/27 02:24:38;;;;;;;13.43;4.23;;;;;;;11.76;83.33;99189.78;4975697;28;20669;-63
2023/05/27 02:27:06;;;;;;;13.40;4.53;;;;;;;11.75;82.63;99186.34;4984799;28;20243;-63
2023/05/27 02:29:38;;;;;;;11.67;4.67;;;;;;;11.78;83.76;99187.84;4994080;28;20225;-63
2023/05/27 02:32:06;;;;;;;11.23;4.30;;;;;;;11.73;83.62;99190.91;4976847;28;20547;-63
2023/05/27 02:34:38;;;;;;;13.17;4.60;;;;;;;11.70;83.84;99187.72;4975880;28;20234;-62
2023/05/27 02:37:05;;;;;;;11.70;5.13;;;;;;;11.73;85.90;99187.44;4983244;28;20238;-62
2023/05/27 02:39:39;;;;;;;12.90;5.17;;;;;;;11.63;85.70;99179.66;4962706;28;20244;-62
2023/05/27 02:42:08;;;;;;;11.90;4.20;;;;;;;11.65;86.60;99183.78;4986913;28;20233;-62
2023/05/27 02:44:38;;;;;;;15.80;4.97;;;;;;;11.52;85.46;99181.47;4979449;28;20231;-62
2023/05/27 02:47:05;;;;;;;11.47;4.93;;;;;;;11.51;87.58;99181.63;4979149;28;20264;-62
2023/05/27 02:49:59;;;;;;;12.67;5.03;;;;;;;11.54;87.97;99183.13;4977215;28;20229;-62
2023/05/27 02:52:26;;;;;;;10.23;4.53;;;;;;;11.45;87.98;99187.44;4975757;28;20685;-62
2023/05/27 02:54:52;;;;;;;10.67;4.80;;;;;;;11.44;87.46;99177.94;4968442;28;20568;-62
2023/05/27 02:57:20;;;;;;;10.47;4.80;;;;;;;11.32;87.28;99180.72;4982381;28;20253;-62
2023/05/27 02:59:47;;;;;;;10.33;4.93;;;;;;;11.26;88.03;99178.69;4977541;28;20231;-63
2023/05/27 03:02:14;;;;;;;10.43;5.20;;;;;;;11.28;88.42;99178.53;4976815;28;20234;-63
2023/05/27 03:04:40;;;;;;;9.37;4.80;;;;;;;11.20;87.97;99176.63;4980633;28;20789;-63
2023/05/27 03:07:07;;;;;;;13.03;4.93;;;;;;;11.16;88.97;99176.06;4976474;28;20225;-62
2023/05/27 03:09:38;;;;;;;10.40;5.00;;;;;;;11.12;88.88;99172.13;4976917;28;20237;-62
2023/05/27 03:12:05;;;;;;;12.10;5.07;;;;;;;11.11;90.76;99177.47;4978179;28;20238;-62
2023/05/27 03:14:39;;;;;;;7.87;4.63;;;;;;;11.10;89.18;99173.22;4974936;28;20809;-62
2023/05/27 03:17:06;;;;;;;11.77;5.27;;;;;;;10.99;89.63;99180.25;4980089;28;20232;-62
2023/05/27 03:19:38;;;;;;;8.90;5.03;;;;;;;10.92;90.43;99184.38;4977126;28;20232;-62
2023/05/27 03:22:06;;;;;;;8.47;4.63;;;;;;;10.88;90.76;99185.63;4977145;28;20692;-62
2023/05/27 03:24:40;;;;;;;13.00;5.23;;;;;;;10.85;91.27;99198.94;4971201;28;20230;-62
2023/05/27 03:27:06;;;;;;;12.83;5.30;;;;;;;10.78;91.56;99191.66;4985726;28;20232;-62
2023/05/27 03:29:43;;;;;;;9.40;5.07;;;;;;;10.77;92.18;99191.81;4973881;28;20257;-62
2023/05/27 03:32:10;;;;;;;8.53;5.50;;;;;;;10.72;91.98;99191.41;5169623;23;20247;-63
2023/05/27 03:34:39;;;;;;;9.20;4.57;;;;;;;10.71;93.46;99190.56;4942746;28;20237;-63
2023/05/27 03:37:06;;;;;;;10.53;5.30;;;;;;;10.65;93.23;99195.53;4977372;28;20229;-62
2023/05/27 03:39:49;;;;;;;12.90;5.33;;;;;;;10.61;92.91;99192.34;4955259;28;20235;-62
2023/05/27 03:42:16;;;;;;;14.07;5.23;;;;;;;10.63;94.26;99193.03;4951557;28;20319;-62
2023/05/27 03:44:44;;;;;;;12.80;4.90;;;;;;;10.69;93.80;99192.50;4978622;28;20316;-62
2023/05/27 03:47:10;;;;;;;12.33;5.50;;;;;;;10.70;93.88;99196.75;4978164;28;20671;-62
2023/05/27 03:49:38;;;;;;;11.90;5.03;;;;;;;10.72;93.63;99200.03;4949412;28;20308;-62
2023/05/27 03:52:07;;;;;;;10.60;5.43;;;;;;;10.70;94.52;99188.91;4952541;28;20248;-62
2023/05/27 03:54:38;;;;;;;13.00;5.67;;;;;;;10.73;94.00;99199.09;4956704;28;20227;-62
2023/05/27 03:57:05;;;;;;;13.83;5.20;;;;;;;10.77;93.27;99186.59;4950263;28;20280;-62
2023/05/27 03:59:36;;;;;;;11.10;5.07;;;;;;;10.84;92.63;99199.91;4955496;28;20251;-62
2023/05/27 04:02:05;;;;;;;11.30;5.33;;;;;;;10.89;94.64;99195.94;4958968;28;20238;-62
2023/05/27 04:04:57;;;;;;;14.40;5.20;;;;;;;10.92;93.61;99195.66;4943893;28;20284;-63
2023/05/27 04:07:26;;;;;;;11.17;5.30;;;;;;;10.96;93.37;99198.00;4957135;28;20237;-63
2023/05/27 04:09:53;;;;;;;12.63;5.27;;;;;;;10.97;93.73;99190.00;4957711;28;20777;-63
2023/05/27 04:12:20;;;;;;;13.37;6.40;;;;;;;10.98;93.37;99196.06;4946180;28;20242;-63
2023/05/27 04:14:50;;;;;;;14.63;5.60;;;;;;;10.96;93.72;99198.00;4952604;28;20247;-63
2023/05/27 04:17:18;;;;;;;10.20;5.17;;;;;;;11.00;93.15;99201.97;4959664;28;20252;-62
2023/05/27 04:19:44;;;;;;;14.07;5.17;;;;;;;11.00;93.92;99200.19;4962980;28;20322;-62
2023/05/27 04:22:11;;;;;;;13.83;5.30;;;;;;;11.06;94.27;99194.41;4955141;28;20698;-62
2023/05/27 04:24:43;;;;;;;10.47;5.27;;;;;;;11.05;93.83;99191.94;4957575;28;20309;-63
2023/05/27 04:27:10;;;;;;;10.77;5.37;;;;;;;11.07;94.60;99193.44;4957993;28;20244;-63
2023/05/27 04:29:38;;;;;;;9.47;5.37;;;;;;;11.16;93.66;99196.97;4958381;28;20328;-63
2023/05/27 04:32:06;;;;;;;9.70;4.87;;;;;;;11.22;94.12;99193.81;4955116;28;20237;-63
2023/05/27 04:34:41;;;;;;;15.33;4.90;;;;;;;11.42;88.44;99198.19;4959316;28;20301;-63
2023/05/27 04:37:10;;;;;;;10.80;6.10;;;;;;;11.51;90.41;99192.91;4961448;28;20755;-63
2023/05/27 04:39:45;;;;;;;11.67;5.10;;;;;;;11.63;88.24;99193.56;4975680;28;20852;-63
2023/05/27 04:42:15;;;;;;;11.33;5.10;;;;;;;11.82;88.05;99197.88;4964223;28;20313;-63
2023/05/27 04:44:44;;;;;;;13.97;5.40;;;;;;;11.87;88.52;99200.06;4958825;28;20236;-63
2023/05/27 04:47:13;;;;;;;9.77;5.17;;;;;;;11.94;89.08;99190.66;4973378;28;20254;-63
2023/05/27 04:49:41;;;;;;;10.43;4.77;;;;;;;12.00;88.74;99198.91;4975486;28;20243;-63
2023/05/27 04:52:07;;;;;;;12.57;5.40;;;;;;;12.06;89.01;99199.19;4962072;28;20246;-63
2023/05/27 04:54:39;;;;;;;13.77;5.43;;;;;;;12.09;89.76;99187.59;4962115;28;20230;-63
2023/05/27 04:57:18;;;;;;;9.17;5.23;;;;;;;12.16;89.06;99188.66;4959792;28;20284;-63
2023/05/27 04:59:58;;;;;;;12.90;4.97;;;;;;;12.18;88.26;99198.97;4958960;28;20739;-63
2023/05/27 05:02:34;;;;;;;10.10;5.03;;;;;;;12.26;88.12;99193.81;4960863;28;20234;-63
2023/05/27 05:05:09;;;;;;;12.93;4.87;;;;;;;12.29;89.51;99192.69;4959811;28;20245;-63
2023/05/27 05:07:37;;;;;;;13.47;5.93;;;;;;;12.33;89.00;99191.44;4960717;28;20304;-63
2023/05/27 05:10:06;;;;;;;14.40;5.27;;;;;;;12.39;87.95;99191.66;4949310;28;20235;-63
2023/05/27 05:12:36;;;;;;;10.83;4.93;;;;;;;12.45;87.18;99198.09;4951645;28;20248;-63
2023/05/27 05:15:03;;;;;;;10.60;5.27;;;;;;;12.54;87.30;99206.84;4961831;28;20318;-63
2023/05/27 05:17:31;;;;;;;11.47;5.33;;;;;;;12.60;87.71;99195.78;4953538;28;20285;-63
2023/05/27 05:19:58;;;;;;;12.93;5.07;;;;;;;12.70;87.65;99203.56;4953891;28;20262;-63
2023/05/27 05:22:28;;;;;;;11.27;5.20;;;;;;;12.75;86.93;99200.50;4959732;28;20718;-63
2023/05/27 05:24:55;;;;;;;12.67;5.43;;;;;;;12.85;84.27;99203.84;4963170;28;20688;-63
2023/05/27 05:27:30;;;;;;;11.13;4.77;;;;;;;12.99;84.24;99207.72;4949245;28;20714;-63
2023/05/27 05:29:58;;;;;;;12.67;5.43;;;;;;;13.10;85.69;99210.09;4963788;28;20232;-63
2023/05/27 05:32:24;;;;;;;11.13;5.40;;;;;;;13.18;84.40;99209.34;4958610;28;20226;-63
2023/05/27 05:34:54;;;;;;;14.93;6.83;;;;;;;13.26;84.04;99209.38;4977727;28;20235;-63
2023/05/27 05:37:21;;;;;;;10.73;6.30;;;;;;;13.36;83.70;99200.59;4944771;28;20247;-63
2023/05/27 05:39:50;;;;;;;14.73;6.27;;;;;;;13.45;83.67;99204.94;4932586;28;20263;-63
2023/05/27 05:42:17;;;;;;;14.50;6.27;;;;;;;13.59;82.58;99206.19;4951737;28;20240;-63
2023/05/27 05:44:44;;;;;;;11.37;5.50;;;;;;;13.60;80.29;99213.06;4950644;28;20567;-63
2023/05/27 05:47:11;;;;;;;13.10;5.67;;;;;;;13.69;81.25;99209.53;4957264;28;20227;-63
2023/05/27 05:49:39;;;;;;;13.63;5.77;;;;;;;13.87;80.49;99204.19;4955830;28;20232;-63
2023/05/27 05:52:09;;;;;;;13.03;5.57;;;;;;;14.00;79.23;99211.59;4947422;28;20265;-63
2023/05/27 05:54:38;;;;;;;10.30;5.10;;;;;;;14.22;77.18;99212.00;4940528;28;20237;-63
2023/05/27 05:57:07;;;;;;;16.40;5.27;;;;;;;14.24;72.67;99207.41;4956633;28;20266;-63
2023/05/27 05:59:39;;;;;;;10.97;4.97;;;;;;;14.20;74.38;99208.72;4971381;28;20224;-63
2023/05/27 06:02:06;;;;;;;13.00;5.53;;;;;;;14.39;75.11;99212.84;4965902;28;20243;-63
2023/05/27 06:04:38;;;;;;;13.73;4.83;;;;;;;14.56;72.63;99223.38;4946985;28;21078;-63
2023/05/27 06:07:05;;;;;;;15.90;5.73;;;;;;;14.52;71.54;99224.69;4948921;28;20595;-63
2023/05/27 06:09:40;;;;;;;14.83;4.73;;;;;;;14.66;73.50;99220.63;4951249;28;20240;-63
2023/05/27 06:12:15;;;;;;;12.93;4.97;;;;;;;14.85;73.68;99228.19;4959266;28;20238;-63
2023/05/27 06:14:46;;;;;;;16.50;5.50;;;;;;;14.99;72.99;99218.84;4962433;28;20258;-63
2023/05/27 06:17:22;;;;;;;13.83;5.20;;;;;;;15.19;74.38;99219.31;4951277;28;20349;-63
2023/05/27 06:19:48;;;;;;;15.03;5.53;;;;;;;15.13;69.77;99227.06;4963351;28;20229;-63
2023/05/27 06:22:15;;;;;;;10.80;4.70;;;;;;;15.29;69.29;99226.22;4958209;28;20230;-63
2023/05/27 06:25:20;;;;;;;14.63;5.10;;;;;;;15.48;67.79;99227.66;4941093;28;20236;-63
2023/05/27 06:27:56;;;;;;;14.10;4.70;;;;;;;15.52;68.40;99234.22;4955980;28;20589;-63
2023/05/27 06:30:23;;;;;;;15.33;5.73;;;;;;;15.74;68.38;99232.72;4949551;28;20237;-63
2023/05/27 06:32:50;;;;;;;12.77;5.00;;;;;;;15.68;66.43;99230.75;4947910;28;20710;-63
2023/05/27 06:35:19;;;;;;;10.73;4.23;;;;;;;15.78;66.40;99234.00;4963510;28;20654;-63
2023/05/27 06:37:47;;;;;;;14.90;4.97;;;;;;;15.82;65.58;99234.47;4955224;28;20627;-63
2023/05/27 06:40:14;;;;;;;15.47;5.17;;;;;;;15.99;65.52;99229.19;4955668;28;20227;-63
2023/05/27 06:42:40;;;;;;;12.50;4.80;;;;;;;15.99;68.02;99230.00;4969517;28;20322;-63
2023/05/27 06:45:20;;;;;;;16.93;4.87;;;;;;;16.23;67.52;99231.72;4945867;28;20683;-63
2023/05/27 06:47:52;;;;;;;12.77;4.13;;;;;;;16.20;64.05;99232.06;4958554;28;20266;-63
2023/05/27 06:50:19;;;;;;;11.50;5.00;;;;;;;16.12;65.06;99232.09;4953122;28;20323;-63
2023/05/27 06:52:45;;;;;;;13.80;4.30;;;;;;;16.23;65.43;99236.13;4958445;28;20241;-63
2023/05/27 06:55:23;;;;;;;13.00;5.23;;;;;;;16.28;64.69;99230.38;4975522;28;20589;-63
2023/05/27 06:58:15;;;;;;;13.17;4.20;;;;;;;16.25;64.21;99222.81;4975638;28;20727;-63
2023/05/27 07:00:57;;;;;;;13.80;4.97;;;;;;;16.19;65.71;99232.22;4964531;28;20283;-63
2023/05/27 07:03:29;;;;;;;12.03;4.53;;;;;;;16.33;64.71;99234.13;4963890;28;20241;-63
2023/05/27 07:05:55;;;;;;;16.17;4.93;;;;;;;16.41;63.16;99233.25;4952665;28;20237;-63
2023/05/27 07:08:24;;;;;;;11.10;4.37;;;;;;;16.41;65.14;99237.69;4949893;28;20240;-63
2023/05/27 07:11:03;;;;;;;14.27;5.03;;;;;;;16.52;64.22;99234.66;4956550;28;20236;-63
2023/05/27 07:13:30;;;;;;;12.10;4.83;;;;;;;16.62;63.45;99239.69;4950956;28;20228;-63
2023/05/27 07:15:59;;;;;;;16.70;4.57;;;;;;;16.83;63.06;99244.34;4947504;28;20363;-63
2023/05/27 07:18:26;;;;;;;17.20;4.73;;;;;;;16.86;61.91;99246.63;4961705;28;20240;-63
2023/05/27 07:20:56;;;;;;;10.93;4.73;;;;;;;16.90;61.62;99247.91;4959326;28;20286;-63
2023/05/27 07:23:24;;;;;;;13.00;4.50;;;;;;;16.89;61.59;99246.28;4943539;28;20694;-63
2023/05/27 07:26:03;;;;;;;17.07;5.00;;;;;;;17.02;62.03;99255.41;4955917;28;20582;-63
2023/05/27 07:28:30;;;;;;;11.40;4.77;;;;;;;17.21;62.41;99254.13;4949204;28;20222;-63
2023/05/27 07:31:09;;;;;;;12.80;4.82;;;;;;;17.19;61.36;99251.66;4955690;28;20470;-63
2023/05/27 07:33:42;;;;;;;16.20;4.90;;;;;;;17.25;62.10;99248.28;4959782;28;20234;-63
2023/05/27 07:36:10;;;;;;;13.53;4.70;;;;;;;17.38;62.33;99239.78;4963587;28;20230;-63
2023/05/27 07:38:37;;;;;;;17.47;5.53;;;;;;;17.55;62.03;99245.72;4949608;28;20701;-63
2023/05/27 07:41:04;;;;;;;11.57;4.70;;;;;;;17.37;62.51;99242.59;4943509;28;20242;-63
2023/05/27 07:43:30;;;;;;;14.80;4.97;;;;;;;17.37;62.17;99234.69;4943687;28;21206;-63
2023/05/27 07:45:57;;;;;;;13.50;4.70;;;;;;;17.64;61.58;99230.59;4966801;28;20233;-63
2023/05/27 07:48:25;;;;;;;13.73;4.40;;;;;;;17.71;60.20;99230.69;4962602;28;20811;-63
2023/05/27 07:50:52;;;;;;;14.13;4.33;;;;;;;17.83;59.61;99220.47;4956335;28;20241;-63
2023/05/27 07:53:19;;;;;;;13.13;4.47;;;;;;;17.70;60.18;99224.59;4953123;28;20240;-63
2023/05/27 07:55:46;;;;;;;16.00;4.67;;;;;;;17.90;60.10;99225.88;4955513;28;20243;-63
2023/05/27 07:58:13;;;;;;;12.20;3.90;;;;;;;18.06;59.31;99223.03;4961498;28;20242;-63
2023/05/27 08:00:50;;;;;;;21.07;5.03;;;;;;;17.97;59.19;99226.78;4961903;28;20313;-63
2023/05/27 08:03:16;;;;;;;13.03;4.53;;;;;;;18.16;58.26;99225.41;4945115;28;20246;-63
2023/05/27 08:05:57;;;;;;;13.60;4.30;;;;;;;18.25;58.56;99231.38;4957342;28;20234;-63
2023/05/27 08:08:44;;;;;;;17.97;4.50;;;;;;;18.14;59.47;99224.75;4952036;28;20238;-63
2023/05/27 08:11:10;;;;;;;15.23;4.33;;;;;;;18.14;59.25;99233.50;4961646;28;20619;-63
2023/05/27 08:14:06;;;;;;;12.30;4.17;;;;;;;18.33;58.10;99217.25;4914763;28;20399;-63
2023/05/27 08:16:41;;;;;;;12.70;4.37;;;;;;;18.51;57.91;99216.81;4951670;28;20244;-63
2023/05/27 08:19:34;;;;;;;13.03;4.50;;;;;;;18.31;57.33;99217.41;4955055;28;20253;-63
2023/05/27 08:22:21;;;;;;;12.27;4.10;;;;;;;18.50;58.28;99208.06;4954762;28;20638;-63
2023/05/27 08:25:07;;;;;;;13.43;4.30;;;;;;;18.27;59.47;99213.50;4955724;28;20283;-63
2023/05/27 08:27:47;;;;;;;15.43;4.90;;;;;;;18.36;59.19;99204.47;4949553;28;20238;-63
2023/05/27 08:30:21;;;;;;;11.30;4.50;;;;;;;18.61;58.19;99204.09;4957579;28;20310;-63
2023/05/27 08:32:55;;;;;;;17.80;3.97;;;;;;;18.93;58.99;99206.41;4951468;28;20244;-63
2023/05/27 08:35:22;;;;;;;16.47;4.17;;;;;;;18.97;55.94;99199.75;4942738;28;20624;-63
2023/05/27 08:37:50;;;;;;;10.20;4.40;;;;;;;18.85;57.97;99188.84;4963578;28;20301;-63
2023/05/27 08:40:19;;;;;;;13.43;4.23;;;;;;;18.95;58.73;99199.94;4951209;28;20231;-63
2023/05/27 08:42:48;;;;;;;11.90;4.67;;;;;;;18.76;58.25;99187.34;4954157;28;20243;-63
2023/05/27 08:45:16;;;;;;;14.10;4.87;;;;;;;18.99;58.01;99184.50;4974950;28;20231;-63
2023/05/27 08:47:44;;;;;;;12.17;4.10;;;;;;;19.18;56.79;99185.66;4962734;28;20238;-63
2023/05/27 08:50:17;;;;;;;15.63;4.70;;;;;;;19.27;57.02;99181.84;4960276;28;20243;-63
2023/05/27 08:52:47;;;;;;;17.03;4.80;;;;;;;19.22;57.54;99186.09;4948226;28;20240;-63
2023/05/27 08:55:17;;;;;;;10.77;4.07;;;;;;;19.41;55.95;99180.13;4961428;28;20263;-63
2023/05/27 08:57:51;;;;;;;14.97;4.47;;;;;;;19.29;57.40;99177.19;4971560;28;20232;-63
2023/05/27 09:00:19;;;;;;;13.53;4.67;;;;;;;19.49;57.32;99178.31;4960619;28;20227;-63
2023/05/27 09:02:46;;;;;;;12.13;4.43;;;;;;;19.76;56.39;99173.97;4954466;28;20247;-63
2023/05/27 09:05:15;;;;;;;16.47;4.57;;;;;;;19.76;56.33;99168.66;4966361;28;20236;-63
2023/05/27 09:07:42;;;;;;;15.30;5.20;;;;;;;19.90;56.43;99167.75;4939981;28;20244;-63
2023/05/27 09:10:10;;;;;;;15.37;5.03;;;;;;;19.89;55.78;99165.28;4960402;28;20228;-64
2023/05/27 09:12:38;;;;;;;13.87;5.30;;;;;;;20.21;56.24;99166.38;4946873;28;20299;-64
2023/05/27 09:15:05;;;;;;;12.17;3.87;;;;;;;20.51;57.11;99173.19;4948112;28;20243;-64
2023/05/27 09:17:32;;;;;;;13.00;4.57;;;;;;;20.54;52.26;99164.00;4958911;28;20691;-64
2023/05/27 09:19:59;;;;;;;8.93;4.40;;;;;;;20.66;53.44;99157.06;4952834;28;20708;-64
2023/05/27 09:22:26;;;;;;;11.73;4.47;;;;;;;20.75;53.47;99150.53;4958601;28;20240;-63
2023/05/27 09:24:54;;;;;;;10.53;4.07;;;;;;;20.82;52.57;99153.22;4959329;28;20626;-64
2023/05/27 09:27:26;;;;;;;11.97;4.63;;;;;;;20.93;52.54;99160.53;4952433;28;20223;-64
2023/05/27 09:29:54;;;;;;;10.40;4.87;;;;;;;20.91;53.27;99148.53;4947332;28;20776;-64
2023/05/27 09:32:27;;;;;;;10.77;4.30;;;;;;;21.09;51.47;99158.50;4960552;28;20234;-63
2023/05/27 09:34:55;;;;;;;14.20;4.53;;;;;;;21.21;50.27;99154.19;4961145;28;20306;-63
2023/05/27 09:37:25;;;;;;;13.33;4.93;;;;;;;21.06;50.05;99154.44;4961389;28;20300;-63
2023/05/27 09:39:52;;;;;;;18.47;5.30;;;;;;;21.21;50.65;99148.88;4951402;28;20241;-63
2023/05/27 09:42:20;;;;;;;11.40;4.40;;;;;;;21.33;50.57;99154.34;4955394;28;20236;-63
2023/05/27 09:44:49;;;;;;;12.20;5.07;;;;;;;21.24;50.20;99151.13;4955458;28;20311;-63
2023/05/27 09:47:20;;;;;;;11.33;4.67;;;;;;;21.33;49.33;99143.72;4958647;28;20239;-63
2023/05/27 09:49:51;;;;;;;14.90;5.57;;;;;;;21.29;49.22;99147.03;4955356;28;20237;-63
2023/05/27 09:52:20;;;;;;;8.77;4.50;;;;;;;21.45;49.95;99153.72;4939697;28;20241;-63
2023/05/27 09:54:48;;;;;;;10.63;4.30;;;;;;;21.06;49.77;99154.44;4956614;28;20326;-63
2023/05/27 09:57:15;;;;;;;12.87;4.80;;;;;;;21.08;49.46;99141.78;4953451;28;20234;-63
2023/05/27 09:59:43;;;;;;;12.90;3.93;;;;;;;20.93;50.55;99138.53;4963738;28;20238;-63
2023/05/27 10:02:16;;;;;;;12.93;4.27;;;;;;;21.17;51.01;99138.91;4954886;28;20236;-63
2023/05/27 10:04:47;;;;;;;15.00;6.03;;;;;;;21.06;49.05;99133.19;4959273;28;20233;-63
2023/05/27 10:07:18;;;;;;;12.47;4.90;;;;;;;21.19;50.30;99144.81;4952035;28;20256;-63
2023/05/27 10:09:46;;;;;;;17.30;4.20;;;;;;;21.46;50.50;99132.28;4960709;28;20225;-63
2023/05/27 10:12:15;;;;;;;13.80;4.47;;;;;;;21.07;49.80;99128.69;4964848;28;20238;-63
2023/05/27 10:14:44;;;;;;;18.80;5.17;;;;;;;20.97;49.20;99126.47;4962240;28;20237;-63
2023/05/27 10:17:11;;;;;;;12.83;4.23;;;;;;;21.29;50.65;99118.63;4965993;28;20275;-63
2023/05/27 10:19:53;;;;;;;12.03;4.40;;;;;;;21.65;49.60;99114.66;4964706;28;20720;-63
2023/05/27 10:22:20;;;;;;;14.10;5.03;;;;;;;21.66;48.02;99115.47;4964956;28;20261;-63
2023/05/27 10:24:49;;;;;;;16.23;4.80;;;;;;;21.79;48.24;99107.41;4966887;28;20238;-63
2023/05/27 10:27:16;;;;;;;15.43;5.13;;;;;;;21.70;49.59;99113.19;4965110;28;20233;-63
2023/05/27 10:29:43;;;;;;;13.70;4.73;;;;;;;21.88;48.88;99107.16;4955175;28;20238;-63
2023/05/27 10:32:10;;;;;;;11.63;4.57;;;;;;;21.74;47.64;99117.06;4959576;28;20347;-64
2023/05/27 10:34:45;;;;;;;13.40;4.77;;;;;;;21.97;48.16;99103.22;4953054;28;20269;-63
2023/05/27 10:37:20;;;;;;;15.47;5.13;;;;;;;22.25;48.51;99104.69;4957380;28;20228;-63
2023/05/27 10:39:54;;;;;;;12.00;4.90;;;;;;;22.06;48.72;99098.50;4948564;28;20574;-63
2023/05/27 10:42:22;;;;;;;13.77;5.03;;;;;;;22.10;47.63;99103.16;4962906;28;20251;-63
2023/05/27 10:44:49;;;;;;;11.33;5.50;;;;;;;21.91;47.46;99104.09;4957250;28;20263;-63
2023/05/27 10:47:15;;;;;;;12.23;4.93;;;;;;;21.97;47.86;99100.56;4955042;28;20721;-63
2023/05/27 10:49:46;;;;;;;16.67;5.23;;;;;;;21.98;47.41;99107.53;4956335;28;20613;-63
2023/05/27 10:52:16;;;;;;;15.10;5.53;;;;;;;21.96;47.14;99105.09;4957277;28;20315;-63
2023/05/27 10:54:45;;;;;;;13.67;4.70;;;;;;;22.25;47.72;99094.88;4952892;28;20294;-63
2023/05/27 10:57:12;;;;;;;16.30;4.93;;;;;;;22.52;47.67;99107.19;4950967;28;20582;-63
2023/05/27 10:59:42;;;;;;;13.63;5.37;;;;;;;22.35;47.40;99091.72;4962235;28;20973;-63
2023/05/27 11:02:09;;;;;;;14.00;5.10;;;;;;;22.45;47.27;99083.28;4965892;28;20251;-63
2023/05/27 11:04:38;;;;;;;13.00;4.80;;;;;;;22.21;47.41;99090.19;4962756;28;20743;-63
2023/05/27 11:07:05;;;;;;;9.87;5.00;;;;;;;22.50;47.65;99091.44;4963259;28;20289;-63
2023/05/27 11:09:46;;;;;;;13.13;4.83;;;;;;;22.79;46.78;99091.00;4959751;28;20234;-63
2023/05/27 11:12:17;;;;;;;9.97;4.90;;;;;;;22.72;46.11;99090.22;4953547;28;20295;-64
2023/05/27 11:14:44;;;;;;;14.13;5.57;;;;;;;22.46;46.40;99087.56;4951332;28;20233;-64
2023/05/27 11:17:11;;;;;;;13.30;5.40;;;;;;;22.67;45.76;99077.56;4954795;28;20236;-64
2023/05/27 11:19:39;;;;;;;12.87;5.37;;;;;;;22.92;45.43;99080.19;4951486;28;20233;-64
2023/05/27 11:22:07;;;;;;;12.43;5.40;;;;;;;23.00;45.43;99071.09;4951142;28;20231;-64
2023/05/27 11:24:39;;;;;;;14.17;5.50;;;;;;;23.15;43.42;99070.72;4953930;28;20231;-63
2023/05/27 11:27:11;;;;;;;13.17;5.27;;;;;;;22.92;43.22;99056.22;4963083;28;20756;-63
2023/05/27 11:29:39;;;;;;;10.20;5.60;;;;;;;23.32;41.71;99052.31;4959650;28;20239;-63
2023/05/27 11:32:06;;;;;;;10.43;6.10;;;;;;;23.58;37.97;99043.19;4953001;28;20327;-63
2023/05/27 11:34:38;;;;;;;12.43;6.37;;;;;;;23.62;41.88;99048.06;4960921;28;20355;-63
2023/05/27 11:37:05;;;;;;;11.63;5.13;;;;;;;23.64;42.76;99045.97;4956014;28;20295;-63
2023/05/27 11:39:38;;;;;;;11.13;5.30;;;;;;;23.39;43.21;99041.59;4944163;28;20233;-63
2023/05/27 11:42:07;;;;;;;13.70;5.73;;;;;;;23.46;43.38;99034.31;4962541;28;20322;-63